sensor_id;sensor_type;location;lat;lon;timestamp;pressure;altitude;pressure_sealevel;temperature;humidity
29549;BME280;16487;53.094;8.800;2023-09-19T00:01:31;99907.78;;;17.85;100.00
29549;BME280;16487;53.094;8.800;2023-09-19T00:04:00;99905.47;;;17.83;100.00
29549;BME280;16487;53.094;8.800;2023-09-19T00:06:28;99918.78;;;17.77;100.00
29549;BME280;16487;53.094;8.800;2023-09-19T00:08:55;99931.84;;;17.80;100.00
29549;BME280;16487;53.094;8.800;2023-09-19T00:11:22;99935.69;;;17.77;100.00
29549;BME280;16487;53.094;8.800;2023-09-19T00:13:49;99943.88;;;17.75;100.00
29549;BME280;16487;53.094;8.800;2023-09-19T00:16:17;99944.16;;;17.77;100.00
29549;BME280;16487;53.094;8.800;2023-09-19T00:18:44;99950.56;;;17.78;100.00
29549;BME280;16487;53.094;8.800;2023-09-19T00:21:13;99942.84;;;17.78;100.00
29549;BME280;16487;53.094;8.800;2023-09-19T00:23:40;99950.06;;;17.79;100.00
29549;BME280;16487;53.094;8.800;2023-09-19T00:26:07;99946.19;;;17.82;100.00
29549;BME280;16487;53.094;8.800;2023-09-19T00:28:34;99933.91;;;17.80;100.00
29549;BME280;16487;53.094;8.800;2023-09-19T00:31:02;99931.59;;;17.84;100.00
29549;BME280;16487;53.094;8.800;2023-09-19T00:33:31;99934.66;;;17.86;100.00
29549;BME280;16487;53.094;8.800;2023-09-19T00:35:58;99929.28;;;17.88;100.00
29549;BME280;16487;53.094;8.800;2023-09-19T00:38:27;99926.97;;;17.75;100.00
29549;BME280;16487;53.094;8.800;2023-09-19T00:40:55;99946.22;;;17.66;100.00
29549;BME280;16487;53.094;8.800;2023-09-19T00:43:25;99965.91;;;17.60;100.00
29549;BME280;16487;53.094;8.800;2023-09-19T00:45:54;99972.34;;;17.61;100.00
29549;BME280;16487;53.094;8.800;2023-09-19T00:48:25;99992.03;;;17.66;100.00
29549;BME280;16487;53.094;8.800;2023-09-19T00:50:53;99971.31;;;17.64;100.00
29549;BME280;16487;53.094;8.800;2023-09-19T00:53:21;99962.06;;;17.63;100.00
29549;BME280;16487;53.094;8.800;2023-09-19T00:55:51;99948.50;;;17.67;100.00
29549;BME280;16487;53.094;8.800;2023-09-19T00:58:19;99945.94;;;17.69;100.00
29549;BME280;16487;53.094;8.800;2023-09-19T01:00:47;99935.94;;;17.68;100.00
29549;BME280;16487;53.094;8.800;2023-09-19T01:03:14;99924.94;;;17.65;100.00
29549;BME280;16487;53.094;8.800;2023-09-19T01:05:42;99914.94;;;17.64;100.00
29549;BME280;16487;53.094;8.800;2023-09-19T01:08:09;99932.09;;;17.60;100.00
29549;BME280;16487;53.094;8.800;2023-09-19T01:10:38;99933.13;;;17.57;100.00
29549;BME280;16487;53.094;8.800;2023-09-19T01:13:15;99928.00;;;17.50;100.00
29549;BME280;16487;53.094;8.800;2023-09-19T01:15:51;99935.16;;;17.51;100.00
29549;BME280;16487;53.094;8.800;2023-09-19T01:18:29;99937.19;;;17.45;100.00
29549;BME280;16487;53.094;8.800;2023-09-19T01:21:05;99988.88;;;17.31;100.00
29549;BME280;16487;53.094;8.800;2023-09-19T01:23:46;100050.00;;;17.19;100.00
29549;BME280;16487;53.094;8.800;2023-09-19T01:26:32;100115.75;;;17.05;100.00
29549;BME280;16487;53.094;8.800;2023-09-19T01:29:23;100173.75;;;16.92;100.00
29549;BME280;16487;53.094;8.800;2023-09-19T01:31:57;100170.88;;;16.81;100.00
29549;BME280;16487;53.094;8.800;2023-09-19T01:34:26;100192.94;;;16.62;100.00
29549;BME280;16487;53.094;8.800;2023-09-19T01:36:53;100165.38;;;16.41;100.00
29549;BME280;16487;53.094;8.800;2023-09-19T01:39:21;100157.31;;;16.28;100.00
29549;BME280;16487;53.094;8.800;2023-09-19T01:41:56;100105.81;;;16.17;100.00
29549;BME280;16487;53.094;8.800;2023-09-19T01:44:31;100090.94;;;16.11;100.00
29549;BME280;16487;53.094;8.800;2023-09-19T01:47:13;100066.53;;;15.96;100.00
29549;BME280;16487;53.094;8.800;2023-09-19T01:49:51;100059.16;;;15.99;100.00
29549;BME280;16487;53.094;8.800;2023-09-19T01:52:23;100049.66;;;15.96;100.00
29549;BME280;16487;53.094;8.800;2023-09-19T01:55:02;100044.22;;;15.87;100.00
29549;BME280;16487;53.094;8.800;2023-09-19T01:57:35;100034.91;;;15.76;100.00
29549;BME280;16487;53.094;8.800;2023-09-19T02:00:06;100041.69;;;15.89;100.00
29549;BME280;16487;53.094;8.800;2023-09-19T02:02:45;100021.19;;;15.83;100.00
29549;BME280;16487;53.094;8.800;2023-09-19T02:05:13;99990.72;;;15.76;100.00
29549;BME280;16487;53.094;8.800;2023-09-19T02:07:48;99987.69;;;15.80;100.00
29549;BME280;16487;53.094;8.800;2023-09-19T02:10:17;99966.00;;;15.80;100.00
29549;BME280;16487;53.094;8.800;2023-09-19T02:12:44;99929.19;;;15.78;100.00
29549;BME280;16487;53.094;8.800;2023-09-19T02:15:14;99897.22;;;15.70;100.00
29549;BME280;16487;53.094;8.800;2023-09-19T02:17:43;99869.13;;;15.70;100.00
29549;BME280;16487;53.094;8.800;2023-09-19T02:20:11;99841.03;;;15.70;100.00
29549;BME280;16487;53.094;8.800;2023-09-19T02:22:38;99838.69;;;15.63;100.00
29549;BME280;16487;53.094;8.800;2023-09-19T02:25:06;99822.28;;;15.62;100.00
29549;BME280;16487;53.094;8.800;2023-09-19T02:27:37;99815.19;;;15.66;100.00
29549;BME280;16487;53.094;8.800;2023-09-19T02:30:05;99819.25;;;15.65;100.00
29549;BME280;16487;53.094;8.800;2023-09-19T02:32:32;99821.59;;;15.67;100.00
29549;BME280;16487;53.094;8.800;2023-09-19T02:35:01;99798.09;;;15.70;100.00
29549;BME280;16487;53.094;8.800;2023-09-19T02:37:35;99789.97;;;15.77;100.00
29549;BME280;16487;53.094;8.800;2023-09-19T02:40:04;99801.50;;;15.85;100.00
29549;BME280;16487;53.094;8.800;2023-09-19T02:42:32;99779.00;;;15.79;100.00
29549;BME280;16487;53.094;8.800;2023-09-19T02:44:59;99769.31;;;15.80;100.00
29549;BME280;16487;53.094;8.800;2023-09-19T02:47:27;99768.53;;;15.80;100.00
29549;BME280;16487;53.094;8.800;2023-09-19T02:49:54;99781.03;;;15.73;100.00
29549;BME280;16487;53.094;8.800;2023-09-19T02:52:22;99780.47;;;15.69;100.00
29549;BME280;16487;53.094;8.800;2023-09-19T02:54:50;99799.88;;;15.67;100.00
29549;BME280;16487;53.094;8.800;2023-09-19T02:57:17;99808.25;;;15.62;100.00
29549;BME280;16487;53.094;8.800;2023-09-19T02:59:45;99843.75;;;15.59;100.00
29549;BME280;16487;53.094;8.800;2023-09-19T03:02:12;99864.63;;;15.53;100.00
29549;BME280;16487;53.094;8.800;2023-09-19T03:04:40;99888.56;;;15.43;100.00
29549;BME280;16487;53.094;8.800;2023-09-19T03:07:07;99911.03;;;15.48;100.00
29549;BME280;16487;53.094;8.800;2023-09-19T03:09:36;99935.50;;;15.42;100.00
29549;BME280;16487;53.094;8.800;2023-09-19T03:12:04;99958.66;;;15.37;100.00
29549;BME280;16487;53.094;8.800;2023-09-19T03:14:32;99984.69;;;15.38;100.00
29549;BME280;16487;53.094;8.800;2023-09-19T03:17:00;100001.75;;;15.34;100.00
29549;BME280;16487;53.094;8.800;2023-09-19T03:19:27;100016.78;;;15.31;100.00
29549;BME280;16487;53.094;8.800;2023-09-19T03:21:54;100044.84;;;15.31;100.00
29549;BME280;16487;53.094;8.800;2023-09-19T03:24:22;100051.38;;;15.23;100.00
29549;BME280;16487;53.094;8.800;2023-09-19T03:26:51;100069.00;;;15.23;100.00
29549;BME280;16487;53.094;8.800;2023-09-19T03:29:19;100080.75;;;15.22;100.00
29549;BME280;16487;53.094;8.800;2023-09-19T03:31:46;100095.53;;;15.22;100.00
29549;BME280;16487;53.094;8.800;2023-09-19T03:34:13;100108.03;;;15.21;100.00
29549;BME280;16487;53.094;8.800;2023-09-19T03:36:41;100123.59;;;15.22;100.00
29549;BME280;16487;53.094;8.800;2023-09-19T03:39:08;100131.75;;;15.20;100.00
29549;BME280;16487;53.094;8.800;2023-09-19T03:41:35;100125.28;;;15.14;100.00
29549;BME280;16487;53.094;8.800;2023-09-19T03:44:05;100128.97;;;15.20;100.00
29549;BME280;16487;53.094;8.800;2023-09-19T03:46:33;100128.66;;;15.18;100.00
29549;BME280;16487;53.094;8.800;2023-09-19T03:49:00;100116.69;;;15.03;100.00
29549;BME280;16487;53.094;8.800;2023-09-19T03:51:27;100129.63;;;15.15;100.00
29549;BME280;16487;53.094;8.800;2023-09-19T03:53:55;100123.81;;;15.19;100.00
29549;BME280;16487;53.094;8.800;2023-09-19T03:56:22;100110.97;;;15.12;100.00
29549;BME280;16487;53.094;8.800;2023-09-19T03:58:49;100111.81;;;15.18;100.00
29549;BME280;16487;53.094;8.800;2023-09-19T04:01:18;100100.31;;;15.16;100.00
29549;BME280;16487;53.094;8.800;2023-09-19T04:03:45;100093.13;;;15.15;100.00
29549;BME280;16487;53.094;8.800;2023-09-19T04:06:12;100086.00;;;15.14;100.00
29549;BME280;16487;53.094;8.800;2023-09-19T04:08:40;100078.56;;;15.11;100.00
29549;BME280;16487;53.094;8.800;2023-09-19T04:11:07;100070.63;;;15.10;100.00
29549;BME280;16487;53.094;8.800;2023-09-19T04:13:34;100056.84;;;15.12;100.00
29549;BME280;16487;53.094;8.800;2023-09-19T04:16:02;100053.00;;;15.09;100.00
29549;BME280;16487;53.094;8.800;2023-09-19T04:18:30;100061.28;;;15.18;100.00
29549;BME280;16487;53.094;8.800;2023-09-19T04:20:57;100044.31;;;15.07;100.00
29549;BME280;16487;53.094;8.800;2023-09-19T04:23:25;100025.75;;;15.15;100.00
29549;BME280;16487;53.094;8.800;2023-09-19T04:25:52;100010.19;;;15.14;100.00
29549;BME280;16487;53.094;8.800;2023-09-19T04:28:19;100006.00;;;15.04;100.00
29549;BME280;16487;53.094;8.800;2023-09-19T04:30:46;100024.38;;;15.05;100.00
29549;BME280;16487;53.094;8.800;2023-09-19T04:33:14;100025.94;;;15.06;100.00
29549;BME280;16487;53.094;8.800;2023-09-19T04:35:42;100033.22;;;14.98;100.00
29549;BME280;16487;53.094;8.800;2023-09-19T04:38:09;100033.22;;;14.98;100.00
29549;BME280;16487;53.094;8.800;2023-09-19T04:40:37;100035.53;;;14.79;100.00
29549;BME280;16487;53.094;8.800;2023-09-19T04:43:04;100051.56;;;14.79;100.00
29549;BME280;16487;53.094;8.800;2023-09-19T04:45:32;100062.19;;;14.89;100.00
29549;BME280;16487;53.094;8.800;2023-09-19T04:47:59;100078.25;;;14.89;100.00
29549;BME280;16487;53.094;8.800;2023-09-19T04:50:28;100082.88;;;14.92;100.00
29549;BME280;16487;53.094;8.800;2023-09-19T04:52:56;100079.88;;;14.96;100.00
29549;BME280;16487;53.094;8.800;2023-09-19T04:55:24;100077.81;;;14.76;100.00
29549;BME280;16487;53.094;8.800;2023-09-19T04:57:51;100100.34;;;14.67;100.00
29549;BME280;16487;53.094;8.800;2023-09-19T05:00:22;100111.16;;;14.74;100.00
29549;BME280;16487;53.094;8.800;2023-09-19T05:02:50;100119.28;;;14.72;100.00
29549;BME280;16487;53.094;8.800;2023-09-19T05:05:20;100146.50;;;14.66;100.00
29549;BME280;16487;53.094;8.800;2023-09-19T05:07:48;100155.50;;;14.70;100.00
29549;BME280;16487;53.094;8.800;2023-09-19T05:10:16;100161.88;;;14.70;100.00
29549;BME280;16487;53.094;8.800;2023-09-19T05:12:44;100175.13;;;14.70;100.00
29549;BME280;16487;53.094;8.800;2023-09-19T05:15:11;100190.00;;;14.76;100.00
29549;BME280;16487;53.094;8.800;2023-09-19T05:17:38;100181.00;;;14.86;100.00
29549;BME280;16487;53.094;8.800;2023-09-19T05:20:07;100184.94;;;14.94;100.00
29549;BME280;16487;53.094;8.800;2023-09-19T05:22:35;100182.13;;;14.94;100.00
29549;BME280;16487;53.094;8.800;2023-09-19T05:25:02;100162.97;;;14.93;100.00
29549;BME280;16487;53.094;8.800;2023-09-19T05:27:31;100146.34;;;14.89;100.00
29549;BME280;16487;53.094;8.800;2023-09-19T05:29:58;100148.63;;;15.06;100.00
29549;BME280;16487;53.094;8.800;2023-09-19T05:32:25;100118.06;;;15.08;100.00
29549;BME280;16487;53.094;8.800;2023-09-19T05:34:52;100122.47;;;15.14;100.00
29549;BME280;16487;53.094;8.800;2023-09-19T05:37:19;100126.16;;;15.20;100.00
29549;BME280;16487;53.094;8.800;2023-09-19T05:39:47;100132.44;;;15.15;100.00
29549;BME280;16487;53.094;8.800;2023-09-19T05:42:14;100135.03;;;15.19;100.00
29549;BME280;16487;53.094;8.800;2023-09-19T05:44:42;100124.09;;;15.21;100.00
29549;BME280;16487;53.094;8.800;2023-09-19T05:47:10;100110.78;;;15.36;100.00
29549;BME280;16487;53.094;8.800;2023-09-19T05:49:37;100104.00;;;15.42;100.00
29549;BME280;16487;53.094;8.800;2023-09-19T05:52:07;100087.69;;;15.46;100.00
29549;BME280;16487;53.094;8.800;2023-09-19T05:54:35;100083.16;;;15.34;100.00
29549;BME280;16487;53.094;8.800;2023-09-19T05:57:02;100082.06;;;15.46;100.00
29549;BME280;16487;53.094;8.800;2023-09-19T05:59:30;100058.72;;;15.55;100.00
29549;BME280;16487;53.094;8.800;2023-09-19T06:01:58;100058.75;;;15.60;100.00
29549;BME280;16487;53.094;8.800;2023-09-19T06:04:26;100038.66;;;15.67;100.00
29549;BME280;16487;53.094;8.800;2023-09-19T06:06:53;100040.00;;;15.72;100.00
29549;BME280;16487;53.094;8.800;2023-09-19T06:09:20;100034.69;;;15.79;100.00
29549;BME280;16487;53.094;8.800;2023-09-19T06:11:50;100021.84;;;15.73;100.00
29549;BME280;16487;53.094;8.800;2023-09-19T06:14:17;100016.34;;;15.84;100.00
29549;BME280;16487;53.094;8.800;2023-09-19T06:16:44;100008.88;;;15.75;100.00
29549;BME280;16487;53.094;8.800;2023-09-19T06:19:13;99986.09;;;15.73;100.00
29549;BME280;16487;53.094;8.800;2023-09-19T06:21:40;99987.47;;;15.83;100.00
29549;BME280;16487;53.094;8.800;2023-09-19T06:24:07;99974.09;;;15.73;100.00
29549;BME280;16487;53.094;8.800;2023-09-19T06:26:35;99957.34;;;15.84;100.00
29549;BME280;16487;53.094;8.800;2023-09-19T06:29:02;99951.00;;;15.89;100.00
29549;BME280;16487;53.094;8.800;2023-09-19T06:31:29;99961.44;;;15.88;100.00
29549;BME280;16487;53.094;8.800;2023-09-19T06:33:56;99922.63;;;15.87;100.00
29549;BME280;16487;53.094;8.800;2023-09-19T06:36:25;99901.09;;;15.78;100.00
29549;BME280;16487;53.094;8.800;2023-09-19T06:38:53;99895.06;;;15.96;100.00
29549;BME280;16487;53.094;8.800;2023-09-19T06:41:21;99888.13;;;15.86;100.00
29549;BME280;16487;53.094;8.800;2023-09-19T06:43:48;99900.19;;;15.92;100.00
29549;BME280;16487;53.094;8.800;2023-09-19T06:46:15;99871.06;;;15.95;100.00
29549;BME280;16487;53.094;8.800;2023-09-19T06:48:43;99855.47;;;15.94;100.00
29549;BME280;16487;53.094;8.800;2023-09-19T06:51:10;99840.44;;;15.97;100.00
29549;BME280;16487;53.094;8.800;2023-09-19T06:53:39;99799.06;;;16.03;100.00
29549;BME280;16487;53.094;8.800;2023-09-19T06:56:06;99792.91;;;15.99;100.00
29549;BME280;16487;53.094;8.800;2023-09-19T06:58:33;99752.84;;;16.10;100.00
29549;BME280;16487;53.094;8.800;2023-09-19T07:01:00;99762.03;;;16.11;100.00
29549;BME280;16487;53.094;8.800;2023-09-19T07:03:28;99727.31;;;16.19;100.00
29549;BME280;16487;53.094;8.800;2023-09-19T07:05:55;99742.91;;;16.20;100.00
29549;BME280;16487;53.094;8.800;2023-09-19T07:08:23;99704.81;;;16.19;100.00
29549;BME280;16487;53.094;8.800;2023-09-19T07:10:52;99707.63;;;16.14;100.00
29549;BME280;16487;53.094;8.800;2023-09-19T07:13:19;99684.34;;;16.08;100.00
29549;BME280;16487;53.094;8.800;2023-09-19T07:15:46;99705.06;;;16.10;100.00
29549;BME280;16487;53.094;8.800;2023-09-19T07:18:15;99681.31;;;16.28;100.00
29549;BME280;16487;53.094;8.800;2023-09-19T07:20:42;99632.53;;;16.36;100.00
29549;BME280;16487;53.094;8.800;2023-09-19T07:23:10;99604.69;;;16.55;100.00
29549;BME280;16487;53.094;8.800;2023-09-19T07:25:39;99579.91;;;16.59;100.00
29549;BME280;16487;53.094;8.800;2023-09-19T07:28:08;99578.84;;;16.51;100.00
29549;BME280;16487;53.094;8.800;2023-09-19T07:30:36;99555.31;;;16.37;100.00
29549;BME280;16487;53.094;8.800;2023-09-19T07:33:04;99523.91;;;16.55;100.00
29549;BME280;16487;53.094;8.800;2023-09-19T07:35:32;99531.28;;;16.42;100.00
29549;BME280;16487;53.094;8.800;2023-09-19T07:37:59;99535.63;;;16.54;100.00
29549;BME280;16487;53.094;8.800;2023-09-19T07:40:27;99516.97;;;16.51;100.00
29549;BME280;16487;53.094;8.800;2023-09-19T07:42:55;99509.00;;;16.71;100.00
29549;BME280;16487;53.094;8.800;2023-09-19T07:45:23;99450.34;;;16.92;100.00
29549;BME280;16487;53.094;8.800;2023-09-19T07:47:51;99409.13;;;17.00;100.00
29549;BME280;16487;53.094;8.800;2023-09-19T07:50:19;99369.34;;;17.20;100.00
29549;BME280;16487;53.094;8.800;2023-09-19T07:52:47;99349.75;;;17.03;100.00
29549;BME280;16487;53.094;8.800;2023-09-19T07:55:15;99346.97;;;16.98;100.00
29549;BME280;16487;53.094;8.800;2023-09-19T07:57:42;99347.22;;;17.35;100.00
29549;BME280;16487;53.094;8.800;2023-09-19T08:00:10;99344.88;;;17.04;100.00
29549;BME280;16487;53.094;8.800;2023-09-19T08:02:40;99360.91;;;17.20;100.00
29549;BME280;16487;53.094;8.800;2023-09-19T08:05:07;99337.28;;;17.29;100.00
29549;BME280;16487;53.094;8.800;2023-09-19T08:07:36;99309.22;;;17.17;100.00
29549;BME280;16487;53.094;8.800;2023-09-19T08:10:06;99289.16;;;17.27;100.00
29549;BME280;16487;53.094;8.800;2023-09-19T08:12:33;99304.25;;;17.29;100.00
29549;BME280;16487;53.094;8.800;2023-09-19T08:15:01;99269.31;;;17.49;100.00
29549;BME280;16487;53.094;8.800;2023-09-19T08:17:31;99243.44;;;17.45;100.00
29549;BME280;16487;53.094;8.800;2023-09-19T08:20:02;99241.44;;;17.69;100.00
29549;BME280;16487;53.094;8.800;2023-09-19T08:22:34;99219.22;;;17.84;100.00
29549;BME280;16487;53.094;8.800;2023-09-19T08:25:14;99213.38;;;17.58;100.00
29549;BME280;16487;53.094;8.800;2023-09-19T08:27:41;99220.63;;;17.96;100.00
29549;BME280;16487;53.094;8.800;2023-09-19T08:30:09;99209.91;;;17.71;100.00
29549;BME280;16487;53.094;8.800;2023-09-19T08:32:36;99219.47;;;17.62;100.00
29549;BME280;16487;53.094;8.800;2023-09-19T08:35:06;99212.88;;;17.78;100.00
29549;BME280;16487;53.094;8.800;2023-09-19T08:37:35;99208.31;;;17.75;100.00
29549;BME280;16487;53.094;8.800;2023-09-19T08:40:03;99209.13;;;17.70;100.00
29549;BME280;16487;53.094;8.800;2023-09-19T08:42:31;99221.47;;;17.67;100.00
29549;BME280;16487;53.094;8.800;2023-09-19T08:44:59;99234.16;;;17.79;100.00
29549;BME280;16487;53.094;8.800;2023-09-19T08:47:33;99219.25;;;17.60;100.00
29549;BME280;16487;53.094;8.800;2023-09-19T08:50:07;99208.91;;;17.68;100.00
29549;BME280;16487;53.094;8.800;2023-09-19T08:52:41;99198.06;;;17.96;100.00
29549;BME280;16487;53.094;8.800;2023-09-19T08:55:12;99203.94;;;17.98;100.00
29549;BME280;16487;53.094;8.800;2023-09-19T08:57:41;99212.53;;;17.87;100.00
29549;BME280;16487;53.094;8.800;2023-09-19T09:00:11;99209.81;;;18.00;100.00
29549;BME280;16487;53.094;8.800;2023-09-19T09:02:40;99211.69;;;17.92;100.00
29549;BME280;16487;53.094;8.800;2023-09-19T09:05:13;99224.59;;;18.06;100.00
29549;BME280;16487;53.094;8.800;2023-09-19T09:07:56;99225.72;;;18.41;100.00
29549;BME280;16487;53.094;8.800;2023-09-19T09:10:24;99215.44;;;18.43;100.00
29549;BME280;16487;53.094;8.800;2023-09-19T09:12:55;99233.22;;;18.33;100.00
29549;BME280;16487;53.094;8.800;2023-09-19T09:15:29;99217.72;;;18.45;100.00
29549;BME280;16487;53.094;8.800;2023-09-19T09:17:58;99239.25;;;18.23;100.00
29549;BME280;16487;53.094;8.800;2023-09-19T09:20:26;99235.59;;;18.28;100.00
29549;BME280;16487;53.094;8.800;2023-09-19T09:22:54;99233.78;;;18.31;100.00
29549;BME280;16487;53.094;8.800;2023-09-19T09:25:22;99240.84;;;18.38;100.00
29549;BME280;16487;53.094;8.800;2023-09-19T09:27:59;99233.78;;;18.50;100.00
29549;BME280;16487;53.094;8.800;2023-09-19T09:30:34;99245.47;;;18.59;100.00
29549;BME280;16487;53.094;8.800;2023-09-19T09:33:08;99263.84;;;18.66;100.00
29549;BME280;16487;53.094;8.800;2023-09-19T09:35:49;99276.72;;;18.80;100.00
29549;BME280;16487;53.094;8.800;2023-09-19T09:38:16;99295.69;;;18.98;100.00
29549;BME280;16487;53.094;8.800;2023-09-19T09:40:47;99320.69;;;19.25;100.00
29549;BME280;16487;53.094;8.800;2023-09-19T09:43:29;99484.88;;;19.22;100.00
29549;BME280;16487;53.094;8.800;2023-09-19T09:46:11;99613.53;;;19.66;100.00
29549;BME280;16487;53.094;8.800;2023-09-19T09:48:39;99751.38;;;19.30;100.00
29549;BME280;16487;53.094;8.800;2023-09-19T09:51:07;99809.38;;;19.66;100.00
29549;BME280;16487;53.094;8.800;2023-09-19T09:53:35;99857.34;;;19.48;100.00
29549;BME280;16487;53.094;8.800;2023-09-19T09:56:03;99928.09;;;19.31;100.00
29549;BME280;16487;53.094;8.800;2023-09-19T09:58:31;99926.28;;;19.28;100.00
29549;BME280;16487;53.094;8.800;2023-09-19T10:00:59;99917.22;;;19.46;100.00
29549;BME280;16487;53.094;8.800;2023-09-19T10:03:33;99947.44;;;19.10;100.00
29549;BME280;16487;53.094;8.800;2023-09-19T10:06:01;99910.00;;;19.04;100.00
29549;BME280;16487;53.094;8.800;2023-09-19T10:08:30;99905.16;;;18.99;100.00
29549;BME280;16487;53.094;8.800;2023-09-19T10:10:57;99947.84;;;18.85;100.00
29549;BME280;16487;53.094;8.800;2023-09-19T10:13:25;99944.78;;;18.77;100.00
29549;BME280;16487;53.094;8.800;2023-09-19T10:15:56;99983.56;;;18.60;100.00
29549;BME280;16487;53.094;8.800;2023-09-19T10:18:26;99912.53;;;18.40;100.00
29549;BME280;16487;53.094;8.800;2023-09-19T10:20:54;99904.63;;;18.44;100.00
29549;BME280;16487;53.094;8.800;2023-09-19T10:23:22;99851.00;;;18.33;100.00
29549;BME280;16487;53.094;8.800;2023-09-19T10:25:52;99846.13;;;18.39;100.00
29549;BME280;16487;53.094;8.800;2023-09-19T10:28:20;99849.41;;;18.54;100.00
29549;BME280;16487;53.094;8.800;2023-09-19T10:30:49;99913.81;;;18.55;100.00
29549;BME280;16487;53.094;8.800;2023-09-19T10:33:17;99919.88;;;18.76;100.00
29549;BME280;16487;53.094;8.800;2023-09-19T10:35:46;99902.22;;;18.70;100.00
29549;BME280;16487;53.094;8.800;2023-09-19T10:38:17;99966.16;;;19.19;100.00
29549;BME280;16487;53.094;8.800;2023-09-19T10:40:49;99992.19;;;18.95;100.00
29549;BME280;16487;53.094;8.800;2023-09-19T10:43:20;100026.50;;;19.27;100.00
29549;BME280;16487;53.094;8.800;2023-09-19T10:45:49;100090.78;;;19.67;100.00
29549;BME280;16487;53.094;8.800;2023-09-19T10:48:17;100187.06;;;20.48;100.00
29549;BME280;16487;53.094;8.800;2023-09-19T10:50:48;100251.41;;;19.91;100.00
29549;BME280;16487;53.094;8.800;2023-09-19T10:53:17;100164.59;;;19.64;100.00
29549;BME280;16487;53.094;8.800;2023-09-19T10:55:50;100197.50;;;19.67;100.00
29549;BME280;16487;53.094;8.800;2023-09-19T10:58:28;100224.69;;;19.81;100.00
29549;BME280;16487;53.094;8.800;2023-09-19T11:00:57;100237.81;;;19.78;100.00
29549;BME280;16487;53.094;8.800;2023-09-19T11:03:25;100207.56;;;19.29;100.00
29549;BME280;16487;53.094;8.800;2023-09-19T11:06:08;100180.59;;;19.17;100.00
29549;BME280;16487;53.094;8.800;2023-09-19T11:08:59;100191.59;;;19.54;100.00
29549;BME280;16487;53.094;8.800;2023-09-19T11:11:40;100297.00;;;20.39;100.00
29549;BME280;16487;53.094;8.800;2023-09-19T11:14:30;100465.81;;;20.42;100.00
29549;BME280;16487;53.094;8.800;2023-09-19T11:20:25;100581.38;;;20.66;100.00
29549;BME280;16487;53.094;8.800;2023-09-19T11:23:23;100620.00;;;20.58;100.00
29549;BME280;16487;53.094;8.800;2023-09-19T11:25:51;100650.13;;;20.77;100.00
29549;BME280;16487;53.094;8.800;2023-09-19T11:28:31;100715.53;;;20.79;100.00
29549;BME280;16487;53.094;8.800;2023-09-19T11:34:46;100842.06;;;21.10;100.00
29549;BME280;16487;53.094;8.800;2023-09-19T11:40:27;100922.47;;;21.07;100.00
29549;BME280;16487;53.094;8.800;2023-09-19T11:42:54;100926.66;;;21.28;100.00
29549;BME280;16487;53.094;8.800;2023-09-19T11:46:02;100904.84;;;20.81;100.00
29549;BME280;16487;53.094;8.800;2023-09-19T11:48:29;100940.78;;;20.52;100.00
29549;BME280;16487;53.094;8.800;2023-09-19T11:50:58;100928.97;;;20.60;100.00
29549;BME280;16487;53.094;8.800;2023-09-19T11:53:31;100910.88;;;20.04;100.00
29549;BME280;16487;53.094;8.800;2023-09-19T11:55:58;100907.72;;;20.27;100.00
29549;BME280;16487;53.094;8.800;2023-09-19T11:58:27;100898.84;;;20.14;100.00
29549;BME280;16487;53.094;8.800;2023-09-19T12:00:56;100920.16;;;20.46;100.00
29549;BME280;16487;53.094;8.800;2023-09-19T12:03:29;100913.13;;;20.90;100.00
29549;BME280;16487;53.094;8.800;2023-09-19T12:05:58;100913.81;;;20.68;100.00
29549;BME280;16487;53.094;8.800;2023-09-19T12:08:25;100925.34;;;21.34;100.00
29549;BME280;16487;53.094;8.800;2023-09-19T12:10:53;100940.75;;;21.00;100.00
29549;BME280;16487;53.094;8.800;2023-09-19T12:13:21;100931.66;;;20.91;100.00
29549;BME280;16487;53.094;8.800;2023-09-19T12:15:48;100945.91;;;21.13;100.00
29549;BME280;16487;53.094;8.800;2023-09-19T12:18:29;100926.13;;;21.46;100.00
29549;BME280;16487;53.094;8.800;2023-09-19T12:20:57;100935.91;;;21.34;100.00
29549;BME280;16487;53.094;8.800;2023-09-19T12:23:27;100932.38;;;21.78;100.00
29549;BME280;16487;53.094;8.800;2023-09-19T12:25:55;100932.34;;;22.16;100.00
29549;BME280;16487;53.094;8.800;2023-09-19T12:28:25;100938.84;;;21.78;100.00
29549;BME280;16487;53.094;8.800;2023-09-19T12:30:55;100939.97;;;22.65;100.00
29549;BME280;16487;53.094;8.800;2023-09-19T12:33:22;100956.53;;;22.50;100.00
29549;BME280;16487;53.094;8.800;2023-09-19T12:35:50;100937.63;;;22.69;100.00
29549;BME280;16487;53.094;8.800;2023-09-19T12:38:24;100938.78;;;22.17;100.00
29549;BME280;16487;53.094;8.800;2023-09-19T12:40:52;100962.78;;;21.66;100.00
29549;BME280;16487;53.094;8.800;2023-09-19T12:43:20;100926.84;;;21.08;100.00
29549;BME280;16487;53.094;8.800;2023-09-19T12:45:47;100931.50;;;22.27;100.00
29549;BME280;16487;53.094;8.800;2023-09-19T12:48:18;100940.84;;;21.44;100.00
29549;BME280;16487;53.094;8.800;2023-09-19T12:51:03;100945.47;;;21.53;100.00
29549;BME280;16487;53.094;8.800;2023-09-19T12:53:32;100927.19;;;21.87;100.00
29549;BME280;16487;53.094;8.800;2023-09-19T12:55:59;100916.63;;;21.93;100.00
29549;BME280;16487;53.094;8.800;2023-09-19T12:58:28;100905.53;;;21.40;100.00
29549;BME280;16487;53.094;8.800;2023-09-19T13:00:55;100888.09;;;22.54;100.00
29549;BME280;16487;53.094;8.800;2023-09-19T13:03:25;100896.53;;;22.70;100.00
29549;BME280;16487;53.094;8.800;2023-09-19T13:05:54;100902.03;;;22.46;100.00
29549;BME280;16487;53.094;8.800;2023-09-19T13:08:24;100892.50;;;23.42;100.00